| time (UTC) | temp F | wind direction | speed knots | gust knots | rain 1hr in | rain 24hr in | rain mn in | humidity % | barometer mb |
| 20260903150004 | 89 | 73 | 1.7 | 3.5 | 0.00 | 0.00 | 0.00 | 68 | 1020.5 |
| 20260903144508 | 88 | 44 | 1.7 | 4.3 | 0.00 | 0.00 | 0.00 | 70 | 1020.4 |
| 20260903143016 | 87 | 19 | 0.0 | 2.6 | 0.00 | 0.00 | 0.00 | 71 | 1020.3 |
| 20260903141520 | 86 | 185 | 0.0 | 0.9 | 0.00 | 0.00 | 0.00 | 75 | 1020.4 |
| 20260903140039 | 85 | 38 | 1.7 | 2.6 | 0.00 | 0.00 | 0.00 | 74 | 1020.5 |
| 20260903134507 | 85 | 72 | 0.0 | 1.7 | 0.00 | 0.00 | 0.00 | 76 | 1020.5 |
| 20260903133010 | 84 | 88 | 0.0 | 0.9 | 0.00 | 0.00 | 0.00 | 79 | 1020.4 |
| 20260903131515 | 82 | 64 | 0.9 | 1.7 | 0.00 | 0.00 | 0.00 | 80 | 1020.5 |
| 20260903130022 | 81 | 79 | 0.0 | 0.0 | 0.00 | 0.00 | 0.00 | 83 | 1020.5 |
| 20260903124531 | 79 | 79 | 0.0 | 0.0 | 0.00 | 0.00 | 0.00 | 86 | 1020.5 |
| 20260903123014 | 76 | 79 | 0.0 | 0.0 | 0.00 | 0.00 | 0.00 | 92 | 1020.6 |
| 20260903121512 | 73 | 79 | 0.9 | 1.7 | 0.00 | 0.00 | 0.00 | 95 | 1020.6 |
| 20260903120017 | 71 | 158 | 0.0 | 0.0 | 0.00 | 0.00 | 0.00 | 98 | 1020.5 |
| 20260903114524 | 69 | 158 | 0.0 | 0.0 | 0.00 | 0.00 | 0.00 | 98 | 1020.4 |
| 20260903113028 | 69 | 158 | 0.0 | 0.0 | 0.00 | 0.00 | 0.00 | 98 | 1020.1 |
| 20260903111535 | 69 | 158 | 0.0 | 0.0 | 0.00 | 0.00 | 0.00 | 97 | 1020.0 |
| 20260903110015 | 69 | 158 | 0.0 | 0.0 | 0.00 | 0.00 | 0.00 | 97 | 1019.8 |
| 20260903104520 | 69 | 158 | 0.0 | 0.0 | 0.00 | 0.00 | 0.00 | 98 | 1019.6 |
| 20260903103028 | 70 | 158 | 0.0 | 0.0 | 0.00 | 0.00 | 0.00 | 97 | 1019.5 |
| 20260903101529 | 70 | 158 | 0.0 | 0.0 | 0.00 | 0.00 | 0.00 | 97 | 1019.4 |
| 20260903100037 | 70 | 158 | 0.0 | 0.0 | 0.00 | 0.00 | 0.00 | 98 | 1019.4 |
| 20260903094521 | 70 | 178 | 0.0 | 0.0 | 0.00 | 0.00 | 0.00 | 98 | 1019.3 |
| 20260903093023 | 69 | 178 | 0.0 | 0.0 | 0.00 | 0.00 | 0.00 | 97 | 1019.2 |
| 20260903091527 | 69 | 178 | 0.0 | 0.0 | 0.00 | 0.00 | 0.00 | 97 | 1019.3 |
| 20260903090037 | 69 | 178 | 0.0 | 0.0 | 0.00 | 0.00 | 0.00 | 97 | 1019.3 |
| 20260903084535 | 70 | 178 | 0.0 | 0.0 | 0.00 | 0.00 | 0.00 | 97 | 1019.3 |
| 20260903083020 | 70 | 178 | 0.0 | 0.0 | 0.00 | 0.00 | 0.00 | 97 | 1019.3 |
| 20260903081525 | 70 | 178 | 0.0 | 0.0 | 0.00 | 0.00 | 0.00 | 97 | 1019.3 |
| 20260903080029 | 70 | 178 | 0.0 | 0.0 | 0.00 | 0.00 | 0.00 | 97 | 1019.3 |
| 20260903074533 | 70 | 178 | 0.0 | 0.0 | 0.00 | 0.00 | 0.00 | 97 | 1019.3 |
| 20260903073034 | 70 | 178 | 0.0 | 0.0 | 0.00 | 0.00 | 0.00 | 96 | 1019.1 |
| 20260903071505 | 70 | 178 | 0.0 | 0.0 | 0.00 | 0.00 | 0.00 | 96 | 1019.1 |
| 20260903070006 | 71 | 178 | 0.0 | 0.0 | 0.00 | 0.00 | 0.00 | 96 | 1019.1 |
| 20260903064507 | 71 | 178 | 0.0 | 0.0 | 0.00 | 0.00 | 0.00 | 96 | 1019.1 |
| 20260903063011 | 71 | 178 | 0.0 | 0.0 | 0.00 | 0.00 | 0.00 | 96 | 1019.2 |
| 20260903061512 | 71 | 178 | 0.0 | 0.0 | 0.00 | 0.00 | 0.00 | 95 | 1019.2 |
| 20260903060013 | 71 | 178 | 0.0 | 0.0 | 0.00 | 0.00 | 0.00 | 95 | 1019.3 |
| 20260903054504 | 71 | 178 | 0.0 | 0.0 | 0.00 | 0.00 | 0.00 | 94 | 1019.3 |
| 20260903053007 | 72 | 178 | 0.0 | 0.0 | 0.00 | 0.00 | 0.00 | 94 | 1019.4 |
| 20260903051511 | 72 | 178 | 0.0 | 0.0 | 0.00 | 0.00 | 0.00 | 94 | 1019.5 |
| 20260903050019 | 72 | 178 | 0.0 | 0.0 | 0.00 | 0.00 | 0.00 | 94 | 1019.5 |
| 20260903044503 | 72 | 178 | 0.0 | 0.0 | 0.00 | 0.00 | 0.00 | 93 | 1019.4 |
| 20260903043006 | 72 | 178 | 0.0 | 0.0 | 0.00 | 0.00 | 0.00 | 94 | 1019.5 |
| 20260903041510 | 73 | 178 | 0.0 | 0.0 | 0.00 | 0.00 | 0.00 | 93 | 1019.5 |
| 20260903040013 | 73 | 178 | 0.0 | 0.0 | 0.00 | 0.00 | 0.00 | 92 | 1019.5 |
| 20260903034520 | 73 | 178 | 0.0 | 0.0 | 0.00 | 0.00 | 0.00 | 91 | 1019.5 |
| 20260903033009 | 74 | 178 | 0.0 | 0.0 | 0.00 | 0.00 | 0.00 | 91 | 1019.5 |
| 20260903031505 | 74 | 178 | 0.0 | 0.0 | 0.00 | 0.00 | 0.00 | 91 | 1019.5 |
| 20260903030013 | 74 | 178 | 0.0 | 0.0 | 0.00 | 0.00 | 0.00 | 90 | 1019.6 |
| 20260903024516 | 75 | 178 | 0.0 | 0.0 | 0.00 | 0.00 | 0.00 | 89 | 1019.5 |
| 20260903023035 | 75 | 178 | 0.0 | 0.0 | 0.00 | 0.00 | 0.00 | 88 | 1019.5 |
| 20260903021512 | 76 | 178 | 0.0 | 0.0 | 0.00 | 0.00 | 0.00 | 87 | 1019.5 |
| 20260903020011 | 76 | 178 | 0.0 | 0.0 | 0.00 | 0.00 | 0.00 | 86 | 1019.5 |
| 20260903014516 | 77 | 178 | 0.0 | 0.0 | 0.00 | 0.00 | 0.00 | 85 | 1019.4 |
| 20260903013020 | 77 | 178 | 0.0 | 0.0 | 0.00 | 0.00 | 0.00 | 84 | 1019.4 |
| 20260903011529 | 78 | 178 | 0.0 | 0.0 | 0.00 | 0.00 | 0.00 | 82 | 1019.0 |
| 20260903010020 | 79 | 178 | 0.0 | 0.0 | 0.00 | 0.00 | 0.00 | 80 | 1019.1 |
| 20260903004509 | 80 | 178 | 0.0 | 0.0 | 0.00 | 0.00 | 0.00 | 78 | 1018.9 |
| 20260903003016 | 82 | 178 | 0.0 | 0.0 | 0.00 | 0.00 | 0.00 | 74 | 1018.8 |
| 20260903001529 | 83 | 178 | 0.0 | 0.0 | 0.00 | 0.00 | 0.00 | 71 | 1018.7 |
| 20260903000028 | 86 | 178 | 0.0 | 0.9 | 0.00 | 0.00 | 0.00 | 67 | 1018.6 |
| 20260902234545 | 89 | 120 | 0.0 | 1.7 | 0.00 | 0.00 | 0.00 | 60 | 1018.6 |
| 20260902233014 | 91 | 228 | 0.0 | 0.9 | 0.00 | 0.00 | 0.00 | 58 | 1018.6 |
| 20260902231531 | 93 | 165 | 0.0 | 0.9 | 0.00 | 0.00 | 0.00 | 56 | 1018.6 |
| 20260902230025 | 95 | 234 | 0.0 | 0.9 | 0.00 | 0.00 | 0.00 | 54 | 1018.7 |
| 20260902224535 | 95 | 150 | 0.0 | 0.9 | 0.00 | 0.00 | 0.00 | 54 | 1018.7 |
| 20260902223032 | 95 | 86 | 0.0 | 0.9 | 0.00 | 0.00 | 0.00 | 53 | 1018.7 |
| 20260902221522 | 96 | 118 | 0.0 | 0.9 | 0.00 | 0.00 | 0.00 | 52 | 1018.7 |
| 20260902220007 | 95 | 110 | 0.0 | 0.9 | 0.00 | 0.00 | 0.00 | 50 | 1018.8 |
| 20260902214504 | 95 | 91 | 0.0 | 1.7 | 0.00 | 0.00 | 0.00 | 54 | 1018.8 |
| 20260902213007 | 95 | 91 | 0.9 | 1.7 | 0.00 | 0.00 | 0.00 | 53 | 1018.8 |
| 20260902211512 | 94 | 132 | 0.0 | 1.7 | 0.00 | 0.00 | 0.00 | 55 | 1018.8 |
| 20260902210018 | 96 | 86 | 0.9 | 5.2 | 0.00 | 0.00 | 0.00 | 50 | 1018.8 |
| 20260902204503 | 99 | 24 | 0.0 | 2.6 | 0.00 | 0.00 | 0.00 | 46 | 1019.0 |
| 20260902203005 | 97 | 236 | 0.9 | 2.6 | 0.00 | 0.00 | 0.00 | 47 | 1019.1 |
| 20260902201510 | 96 | 270 | 1.7 | 3.5 | 0.00 | 0.00 | 0.00 | 50 | 1019.2 |
| 20260902200014 | 95 | 169 | 0.0 | 1.7 | 0.00 | 0.00 | 0.00 | 54 | 1019.3 |
| 20260902194523 | 94 | 92 | 0.0 | 0.9 | 0.00 | 0.00 | 0.00 | 57 | 1019.5 |
| 20260902193027 | 95 | 237 | 0.0 | 0.9 | 0.00 | 0.00 | 0.00 | 56 | 1019.7 |
| 20260902191505 | 97 | 92 | 0.0 | 2.6 | 0.00 | 0.00 | 0.00 | 50 | 1019.8 |
| 20260902190011 | 99 | 227 | 0.9 | 1.7 | 0.00 | 0.00 | 0.00 | 48 | 1020.0 |
| 20260902184519 | 97 | 270 | 0.9 | 2.6 | 0.00 | 0.00 | 0.00 | 50 | 1020.1 |
| 20260902183024 | 96 | 269 | 0.9 | 4.3 | 0.00 | 0.00 | 0.00 | 54 | 1020.2 |
| 20260902181528 | 95 | 114 | 0.9 | 3.5 | 0.00 | 0.00 | 0.00 | 54 | 1020.4 |
| 20260902180007 | 93 | 205 | 0.0 | 6.1 | 0.00 | 0.00 | 0.00 | 57 | 1020.6 |
| 20260902174512 | 97 | 16 | 1.7 | 5.2 | 0.00 | 0.00 | 0.00 | 49 | 1020.7 |
| 20260902173029 | 97 | 341 | 0.9 | 2.6 | 0.00 | 0.00 | 0.00 | 49 | 1020.9 |
| 20260902171520 | 95 | 263 | 1.7 | 2.6 | 0.00 | 0.00 | 0.00 | 52 | 1021.4 |
| 20260902170030 | 93 | 86 | 1.7 | 5.2 | 0.00 | 0.00 | 0.00 | 55 | 1021.5 |
| 20260902164506 | 93 | 265 | 0.9 | 3.5 | 0.00 | 0.00 | 0.00 | 57 | 1021.6 |
| 20260902163013 | 95 | 242 | 0.9 | 2.6 | 0.00 | 0.00 | 0.00 | 55 | 1021.9 |
| 20260902161534 | 94 | 124 | 0.9 | 2.6 | 0.00 | 0.00 | 0.00 | 58 | 1021.9 |
| 20260902160023 | 94 | 177 | 0.0 | 1.7 | 0.00 | 0.00 | 0.00 | 60 | 1022.2 |
| 20260902154533 | 93 | 77 | 0.9 | 2.6 | 0.00 | 0.00 | 0.00 | 58 | 1022.3 |
| 20260902153031 | 93 | 271 | 0.0 | 2.6 | 0.00 | 0.00 | 0.00 | 63 | 1022.2 |
| 20260902151515 | 91 | 225 | 0.0 | 1.7 | 0.00 | 0.00 | 0.00 | 62 | 1022.2 |